Time;durP1;ratioP1;P1;durP2;ratioP2;P2;SDS_P1;SDS_P2;PMS_P1;PMS_P2;Temp;Humidity;BMP_temperature;BMP_pressure;BME280_temperature;BME280_humidity;BME280_pressure;Samples;Min_cycle;Max_cycle;Signal;HPM_P1;HPM_P2
2023/10/02 00:04:24;;;;;;;9.82;6.25;;;15.40;99.90;;;;;;10130376;29;20688;-83
2023/10/02 00:09:27;;;;;;;9.18;4.65;;;15.60;99.90;;;;;;10129958;29;20252;-83
2023/10/02 00:14:35;;;;;;;11.90;4.90;;;15.50;99.90;;;;;;10129844;29;20232;-83
2023/10/02 00:19:39;;;;;;;6.78;4.88;;;15.50;99.90;;;;;;10128470;29;20695;-84
2023/10/02 00:24:45;;;;;;;11.07;5.55;;;15.70;99.90;;;;;;10128511;29;20296;-83
2023/10/02 00:29:57;;;;;;;10.32;5.95;;;15.70;99.90;;;;;;10128261;29;20239;-84
2023/10/02 00:35:04;;;;;;;9.23;5.22;;;16.10;99.90;;;;;;10113043;29;20627;-83
2023/10/02 00:40:07;;;;;;;8.18;4.57;;;16.30;99.90;;;;;;10112552;29;20264;-83
2023/10/02 00:45:10;;;;;;;14.88;6.97;;;16.70;99.90;;;;;;10111472;29;20247;-84
2023/10/02 00:50:25;;;;;;;8.35;5.18;;;16.60;99.90;;;;;;10128989;29;20696;-84
2023/10/02 00:55:32;;;;;;;11.55;5.57;;;16.40;99.90;;;;;;10129295;29;20235;-84
2023/10/02 01:00:35;;;;;;;11.10;5.57;;;16.20;99.90;;;;;;10111166;29;20307;-83
2023/10/02 01:05:42;;;;;;;10.57;4.50;;;16.00;99.90;;;;;;10075641;29;20308;-84
2023/10/02 01:10:45;;;;;;;9.02;4.55;;;15.90;99.90;;;;;;10089072;29;20248;-84
2023/10/02 01:15:48;;;;;;;9.65;5.28;;;15.90;99.90;;;;;;10098155;29;20289;-84
2023/10/02 01:20:56;;;;;;;7.88;4.97;;;15.80;99.90;;;;;;10110609;29;20247;-83
2023/10/02 01:26:02;;;;;;;9.57;5.15;;;15.70;99.90;;;;;;10128358;29;20259;-84
2023/10/02 01:31:31;;;;;;;8.45;5.10;;;15.70;99.90;;;;;;10115832;29;20252;-84
2023/10/02 01:36:31;;;;;;;7.70;4.93;;;16.10;99.90;;;;;;10136164;29;20251;-83
2023/10/02 01:41:33;;;;;;;7.85;5.07;;;15.90;99.90;;;;;;10136330;29;20291;-84
2023/10/02 01:46:49;;;;;;;7.47;4.85;;;16.10;99.90;;;;;;10135641;29;20239;-83
2023/10/02 01:52:08;;;;;;;9.68;5.43;;;16.30;99.90;;;;;;10135966;29;20235;-84
2023/10/02 01:57:24;;;;;;;12.95;5.80;;;15.90;99.90;;;;;;10117611;29;20263;-83
2023/10/02 02:02:27;;;;;;;10.38;5.25;;;15.80;99.90;;;;;;10117832;29;20256;-84
2023/10/02 02:07:30;;;;;;;10.38;4.90;;;15.60;99.90;;;;;;10134359;29;20730;-84
2023/10/02 02:12:44;;;;;;;8.98;5.35;;;15.80;99.90;;;;;;10117522;29;20630;-84
2023/10/02 02:17:49;;;;;;;8.70;5.07;;;15.40;99.90;;;;;;10117002;29;20319;-84
2023/10/02 02:22:52;;;;;;;8.00;4.60;;;15.40;99.90;;;;;;10117540;29;20268;-83
2023/10/02 02:27:55;;;;;;;9.23;5.22;;;15.40;99.90;;;;;;10117544;29;20640;-83
2023/10/02 02:33:00;;;;;;;9.80;5.05;;;15.30;99.90;;;;;;10134362;29;20268;-83
2023/10/02 02:38:03;;;;;;;7.88;5.20;;;15.60;99.90;;;;;;10133369;29;20284;-83
2023/10/02 02:43:13;;;;;;;8.40;5.10;;;15.70;99.90;;;;;;10115856;29;20655;-83
2023/10/02 02:48:16;;;;;;;9.13;5.43;;;15.80;99.90;;;;;;10116481;29;20243;-83
2023/10/02 02:53:22;;;;;;;11.45;5.53;;;16.00;99.90;;;;;;10115226;29;20259;-83
2023/10/02 02:58:29;;;;;;;8.25;5.22;;;16.00;99.90;;;;;;10132294;29;20263;-84
2023/10/02 03:03:34;;;;;;;12.85;6.53;;;16.10;99.90;;;;;;10115823;29;20240;-83
2023/10/02 03:08:40;;;;;;;7.40;4.80;;;16.30;99.90;;;;;;10115971;29;20256;-83
2023/10/02 03:13:43;;;;;;;9.10;5.57;;;16.10;99.90;;;;;;10114753;29;20268;-83
2023/10/02 03:18:48;;;;;;;9.05;5.63;;;16.20;99.90;;;;;;10131160;29;20284;-83
2023/10/02 03:23:59;;;;;;;10.75;5.50;;;16.10;99.90;;;;;;10132471;29;20236;-83
2023/10/02 03:29:05;;;;;;;9.80;5.97;;;15.90;99.90;;;;;;10116261;29;20243;-83
2023/10/02 03:44:59;;;;;;;7.57;5.53;;;15.90;99.90;;;;;;10131240;29;20236;-83
2023/10/02 03:50:04;;;;;;;7.85;4.90;;;16.10;99.90;;;;;;10115324;29;20677;-83
2023/10/02 03:55:19;;;;;;;12.50;5.75;;;15.90;99.90;;;;;;10131841;29;20303;-83
2023/10/02 04:00:26;;;;;;;10.05;5.60;;;15.80;99.90;;;;;;10129742;29;20264;-83
2023/10/02 04:05:32;;;;;;;11.13;5.60;;;16.10;99.90;;;;;;10131503;29;20228;-83
2023/10/02 04:10:51;;;;;;;8.23;5.38;;;15.80;99.90;;;;;;10130275;29;20295;-83
2023/10/02 04:16:28;;;;;;;7.72;4.90;;;16.10;99.90;;;;;;10130367;29;20599;-84
2023/10/02 04:21:25;;;;;;;7.15;5.07;;;16.10;99.90;;;;;;10111843;29;20715;-84
2023/10/02 04:26:33;;;;;;;9.18;5.43;;;16.40;99.90;;;;;;10124502;29;20315;-83
2023/10/02 04:31:36;;;;;;;10.60;5.10;;;16.00;99.90;;;;;;10131607;29;20239;-84
2023/10/02 04:36:41;;;;;;;9.00;5.22;;;15.90;99.90;;;;;;10134548;29;20686;-84
2023/10/02 04:42:09;;;;;;;8.90;5.20;;;15.90;99.90;;;;;;10129588;29;20627;-84
2023/10/02 04:47:09;;;;;;;18.13;5.43;;;15.80;99.90;;;;;;10120438;29;20287;-85
2023/10/02 04:52:12;;;;;;;9.07;4.70;;;15.90;99.90;;;;;;10112190;29;20247;-84
2023/10/02 04:57:15;;;;;;;14.68;5.72;;;16.00;99.90;;;;;;10129012;29;20651;-84
2023/10/02 05:02:25;;;;;;;8.48;5.10;;;16.10;99.90;;;;;;10149582;29;20231;-83
2023/10/02 05:07:28;;;;;;;11.65;6.15;;;15.80;99.90;;;;;;10143849;29;20737;-84
2023/10/02 05:12:35;;;;;;;11.75;6.57;;;16.00;99.90;;;;;;10138379;29;20326;-84
2023/10/02 05:17:46;;;;;;;8.23;4.88;;;16.10;99.90;;;;;;10128069;29;20647;-83
2023/10/02 05:22:58;;;;;;;9.75;5.90;;;16.10;99.90;;;;;;10111176;29;20281;-83
2023/10/02 05:28:01;;;;;;;12.35;6.53;;;16.00;99.90;;;;;;10125786;29;20327;-82
2023/10/02 05:33:07;;;;;;;11.05;5.40;;;15.90;99.90;;;;;;10127517;29;20239;-82
2023/10/02 05:38:16;;;;;;;12.13;4.82;;;16.00;99.90;;;;;;10127848;29;20267;-82
2023/10/02 05:43:21;;;;;;;15.23;5.45;;;16.00;99.90;;;;;;10114894;29;20703;-82
2023/10/02 05:48:27;;;;;;;9.85;4.72;;;16.30;99.90;;;;;;10120389;29;20232;-83
2023/10/02 05:53:34;;;;;;;9.02;5.22;;;16.30;99.90;;;;;;10090329;29;20248;-85
2023/10/02 05:58:42;;;;;;;8.45;5.00;;;16.60;99.90;;;;;;10072554;29;20260;-85
2023/10/02 06:03:56;;;;;;;7.72;5.00;;;16.60;99.90;;;;;;10089743;29;20232;-85
2023/10/02 06:09:03;;;;;;;17.98;5.88;;;16.70;99.90;;;;;;10088676;29;20284;-86
2023/10/02 06:14:13;;;;;;;17.33;6.63;;;16.60;99.90;;;;;;10100270;29;20283;-86
2023/10/02 06:19:17;;;;;;;13.85;5.50;;;16.80;99.90;;;;;;10117370;29;20671;-86
2023/10/02 06:39:42;;;;;;;11.48;7.10;;;16.70;99.90;;;;;;10636136;27;21198;-81
2023/10/02 06:44:54;;;;;;;17.17;6.30;;;17.00;99.90;;;;;;10572337;28;20292;-81
2023/10/02 06:50:03;;;;;;;7.95;5.25;;;17.10;99.90;;;;;;10597974;28;20684;-82
2023/10/02 06:55:06;;;;;;;13.75;6.25;;;17.10;99.90;;;;;;10604038;28;20225;-81
2023/10/02 07:00:19;;;;;;;15.23;6.20;;;17.30;99.90;;;;;;10608573;28;20220;-81
2023/10/02 07:05:27;;;;;;;16.08;7.32;;;17.30;99.80;;;;;;10582441;28;20710;-84
2023/10/02 07:10:42;;;;;;;12.80;5.93;;;17.40;99.90;;;;;;10585900;28;20225;-85
2023/10/02 07:15:59;;;;;;;10.38;5.00;;;17.60;99.90;;;;;;10587359;28;20296;-85
2023/10/02 07:21:09;;;;;;;8.68;5.85;;;17.70;99.90;;;;;;10574780;28;20231;-85
2023/10/02 07:26:19;;;;;;;9.63;3.67;;;17.80;99.90;;;;;;10576964;28;20331;-82
2023/10/02 07:31:23;;;;;;;14.52;7.07;;;17.90;99.90;;;;;;10594693;28;20223;-82
2023/10/02 07:36:26;;;;;;;14.18;6.25;;;17.90;99.10;;;;;;10583505;28;20252;-84
2023/10/02 07:41:31;;;;;;;14.07;6.72;;;18.10;99.30;;;;;;10555239;28;20240;-84
2023/10/02 07:46:36;;;;;;;10.65;6.43;;;18.10;99.30;;;;;;10530481;28;20314;-84
2023/10/02 07:51:39;;;;;;;12.20;6.43;;;18.20;99.00;;;;;;10535332;28;20743;-82
2023/10/02 07:56:47;;;;;;;11.00;5.13;;;18.30;99.10;;;;;;10537816;28;20224;-83
2023/10/02 08:01:51;;;;;;;14.00;6.93;;;18.40;98.70;;;;;;10533902;28;20229;-83
2023/10/02 08:06:54;;;;;;;12.20;6.28;;;18.50;97.70;;;;;;10529991;28;20303;-83
2023/10/02 08:12:29;;;;;;;10.07;5.70;;;18.60;97.40;;;;;;10549506;28;20254;-83
2023/10/02 08:22:37;;;;;;;12.45;5.88;;;18.60;97.40;;;;;;10524067;28;20201;-84
2023/10/02 08:27:43;;;;;;;13.88;5.88;;;18.50;98.00;;;;;;10547939;28;20313;-83
2023/10/02 08:32:48;;;;;;;14.75;5.63;;;18.60;98.10;;;;;;10557713;28;20296;-83
2023/10/02 08:37:54;;;;;;;7.60;4.35;;;18.70;97.40;;;;;;10577724;28;20265;-83
2023/10/02 08:42:57;;;;;;;11.00;5.72;;;18.90;97.50;;;;;;10576892;28;20262;-81
2023/10/02 08:48:07;;;;;;;18.92;5.63;;;19.00;97.00;;;;;;10576691;28;20252;-81
2023/10/02 08:53:11;;;;;;;9.95;4.20;;;19.20;96.80;;;;;;10554877;28;20240;-81
2023/10/02 08:58:17;;;;;;;11.75;5.85;;;19.40;95.90;;;;;;10557367;28;20240;-81
2023/10/02 09:03:23;;;;;;;8.60;5.75;;;19.50;95.50;;;;;;10558111;28;20233;-81
2023/10/02 09:08:26;;;;;;;12.57;5.28;;;19.50;94.70;;;;;;10558337;28;20305;-81
2023/10/02 09:13:31;;;;;;;8.30;4.35;;;19.70;93.80;;;;;;10576419;28;20285;-81
2023/10/02 09:19:07;;;;;;;11.25;4.45;;;19.80;93.90;;;;;;10575553;28;20269;-82
2023/10/02 09:24:00;;;;;;;8.75;4.82;;;20.10;93.00;;;;;;10568266;28;20232;-82
2023/10/02 09:29:06;;;;;;;8.55;4.88;;;20.40;91.20;;;;;;10558063;28;20643;-82
2023/10/02 09:34:16;;;;;;;11.95;4.88;;;20.50;90.50;;;;;;10576065;28;20676;-82
2023/10/02 09:39:39;;;;;;;8.65;4.60;;;20.60;89.80;;;;;;10575610;28;20237;-82
2023/10/02 09:44:47;;;;;;;11.02;5.55;;;20.80;88.50;;;;;;10575624;28;20241;-82
2023/10/02 09:50:10;;;;;;;8.18;4.40;;;20.90;86.50;;;;;;10575286;28;20294;-82
2023/10/02 09:55:24;;;;;;;7.95;4.85;;;21.10;87.10;;;;;;10574925;28;20254;-82
2023/10/02 10:00:36;;;;;;;9.93;5.72;;;21.20;87.30;;;;;;10557376;28;20224;-82
2023/10/02 10:06:08;;;;;;;8.68;3.95;;;21.40;84.70;;;;;;10574655;28;20285;-82
2023/10/02 10:11:18;;;;;;;9.43;4.38;;;21.50;84.40;;;;;;10574811;28;20297;-82
2023/10/02 10:16:23;;;;;;;8.70;3.78;;;21.80;82.70;;;;;;10556294;28;20236;-82
2023/10/02 10:22:10;;;;;;;11.52;4.80;;;22.00;80.70;;;;;;10574831;28;20284;-81
2023/10/02 10:27:38;;;;;;;12.32;5.53;;;22.10;80.80;;;;;;10573124;28;20784;-82
2023/10/02 10:32:41;;;;;;;23.02;5.38;;;22.30;75.30;;;;;;10573973;28;20228;-83
2023/10/02 10:37:48;;;;;;;14.60;6.10;;;22.30;74.40;;;;;;10541372;28;20264;-83
2023/10/02 10:43:05;;;;;;;14.10;5.15;;;;;;;;;;10573544;28;20677;-83
2023/10/02 10:48:21;;;;;;;16.70;5.68;;;;;;;;;;10512357;28;20664;-84
2023/10/02 10:53:28;;;;;;;20.50;5.63;;;;;;;;;;10531173;28;20916;-83
2023/10/02 10:58:35;;;;;;;16.40;6.00;;;;;;;;;;10568093;28;20248;-83
2023/10/02 11:03:38;;;;;;;18.70;5.60;;;23.20;65.60;;;;;;10554901;28;20240;-82
2023/10/02 11:09:11;;;;;;;11.25;5.55;;;23.20;64.80;;;;;;10573137;28;20252;-84
2023/10/02 11:14:20;;;;;;;11.32;4.75;;;23.40;61.90;;;;;;10576142;28;20295;-85
2023/10/02 11:19:26;;;;;;;9.90;4.75;;;23.50;63.80;;;;;;10539094;28;20706;-84
2023/10/02 11:24:29;;;;;;;13.75;5.30;;;23.50;61.20;;;;;;10526193;28;20282;-84
2023/10/02 11:29:40;;;;;;;12.45;4.95;;;23.50;56.80;;;;;;10543062;28;20300;-83
2023/10/02 11:34:59;;;;;;;9.48;4.40;;;23.50;60.00;;;;;;10559577;28;20228;-84
2023/10/02 11:40:03;;;;;;;10.38;4.15;;;23.60;59.40;;;;;;10552267;28;20224;-83
2023/10/02 11:45:10;;;;;;;7.68;4.78;;;23.70;60.40;;;;;;10579999;28;20694;-82
2023/10/02 11:50:15;;;;;;;11.25;5.38;;;23.70;58.40;;;;;;10578004;28;20255;-83
2023/10/02 11:55:19;;;;;;;10.45;5.70;;;23.70;57.20;;;;;;10561622;28;20756;-83
2023/10/02 12:00:23;;;;;;;5.47;3.63;;;23.60;59.30;;;;;;10560261;28;20686;-84
2023/10/02 12:05:30;;;;;;;6.47;4.18;;;23.70;61.10;;;;;;10520018;28;20225;-84
2023/10/02 12:10:33;;;;;;;8.32;4.65;;;23.80;59.10;;;;;;10540916;28;20229;-85
2023/10/02 12:15:35;;;;;;;7.47;5.03;;;;;;;;;;10554468;28;20245;-83
2023/10/02 12:20:42;;;;;;;7.32;4.15;;;24.20;81.40;;;;;;10565926;28;20234;-83
2023/10/02 12:25:47;;;;;;;8.02;4.50;;;24.20;81.10;;;;;;10536087;28;20257;-85
2023/10/02 12:30:50;;;;;;;7.43;4.13;;;24.20;81.10;;;;;;10537990;28;20283;-86
2023/10/02 12:35:57;;;;;;;15.63;6.70;;;24.00;81.20;;;;;;10553587;28;20264;-85
2023/10/02 12:40:59;;;;;;;6.40;3.78;;;24.30;76.90;;;;;;10551926;28;20225;-85
2023/10/02 12:46:05;;;;;;;14.77;5.82;;;;;;;;;;10569171;28;20248;-83
2023/10/02 12:51:09;;;;;;;12.27;5.30;;;;;;;;;;10575803;28;20266;-83
2023/10/02 12:56:21;;;;;;;8.60;5.53;;;;;;;;;;10573222;28;20282;-83
2023/10/02 13:01:27;;;;;;;8.77;3.38;;;;;;;;;;10528656;28;20642;-83
2023/10/02 13:06:30;;;;;;;8.90;4.72;;;;;;;;;;10575256;28;20256;-84
2023/10/02 13:11:33;;;;;;;5.78;3.70;;;24.30;49.60;;;;;;10567571;28;20266;-82
2023/10/02 13:16:42;;;;;;;6.53;4.10;;;24.20;53.20;;;;;;10556765;28;20702;-82
2023/10/02 13:21:45;;;;;;;4.50;3.13;;;24.20;52.00;;;;;;10573771;28;20303;-82
2023/10/02 13:26:48;;;;;;;7.90;3.08;;;24.30;52.70;;;;;;10574137;28;20301;-82
2023/10/02 13:31:51;;;;;;;4.57;3.55;;;24.30;54.90;;;;;;10558505;28;20279;-82
2023/10/02 13:36:54;;;;;;;5.97;3.70;;;24.20;54.20;;;;;;10532691;28;20637;-83
2023/10/02 13:41:57;;;;;;;5.78;3.70;;;24.20;53.60;;;;;;10573359;28;20945;-83
2023/10/02 13:47:00;;;;;;;4.85;3.40;;;24.10;54.00;;;;;;10556030;28;20260;-85
2023/10/02 13:52:03;;;;;;;6.82;3.72;;;23.90;55.00;;;;;;10574408;28;20225;-83
2023/10/02 13:57:06;;;;;;;5.53;3.55;;;24.00;54.90;;;;;;10569691;28;20791;-86
2023/10/02 14:02:11;;;;;;;7.05;3.38;;;24.00;56.70;;;;;;10505422;28;20270;-85
2023/10/02 14:07:13;;;;;;;13.52;5.85;;;24.10;55.30;;;;;;10532467;28;21044;-87
2023/10/02 14:12:16;;;;;;;6.03;3.75;;;24.20;51.90;;;;;;10561106;28;20236;-86
2023/10/02 14:17:19;;;;;;;6.55;3.97;;;24.10;54.00;;;;;;10531388;28;20667;-85
2023/10/02 14:22:22;;;;;;;4.68;3.35;;;24.10;54.20;;;;;;10528598;28;20232;-86
2023/10/02 14:27:25;;;;;;;7.28;4.60;;;24.10;54.20;;;;;;10532922;28;20306;-85
2023/10/02 14:32:27;;;;;;;11.80;4.90;;;24.00;52.70;;;;;;10553067;28;20289;-87
2023/10/02 14:37:31;;;;;;;7.82;4.85;;;23.90;52.70;;;;;;10573602;28;20305;-86
2023/10/02 14:42:34;;;;;;;6.40;4.22;;;23.80;53.60;;;;;;10572918;28;20193;-85
2023/10/02 14:47:37;;;;;;;7.63;4.18;;;23.60;56.60;;;;;;10553348;28;20244;-85
2023/10/02 14:52:42;;;;;;;12.05;5.88;;;23.60;55.90;;;;;;10581018;28;20236;-86
2023/10/02 14:57:49;;;;;;;10.48;5.57;;;23.50;56.20;;;;;;10552912;28;20629;-86
2023/10/02 15:02:52;;;;;;;8.88;5.03;;;23.20;60.10;;;;;;10521387;28;20621;-85
2023/10/02 15:07:57;;;;;;;6.78;4.85;;;23.00;62.00;;;;;;10541000;28;20322;-86
2023/10/02 15:13:00;;;;;;;13.55;5.50;;;22.80;65.80;;;;;;10540422;28;20259;-87
2023/10/02 15:18:07;;;;;;;9.43;4.25;;;22.60;68.30;;;;;;10522285;28;20656;-87
2023/10/02 15:23:10;;;;;;;11.65;4.40;;;22.40;70.00;;;;;;10563964;28;20205;-87
2023/10/02 15:28:13;;;;;;;7.78;3.88;;;20.60;79.70;;;;;;10579387;28;20248;-87
2023/10/02 15:33:16;;;;;;;16.40;6.38;;;22.00;76.10;;;;;;10545678;28;20193;-87
2023/10/02 15:38:19;;;;;;;12.00;5.55;;;22.00;77.40;;;;;;10538908;28;20256;-87
2023/10/02 15:43:24;;;;;;;6.53;4.20;;;21.80;80.00;;;;;;10561339;28;20627;-87
2023/10/02 15:48:27;;;;;;;11.75;5.55;;;21.70;80.80;;;;;;10537864;28;20264;-87
2023/10/02 15:53:29;;;;;;;13.90;6.43;;;21.50;82.40;;;;;;10551883;28;20193;-88
2023/10/02 15:58:32;;;;;;;10.07;4.93;;;21.30;85.00;;;;;;10539648;28;20232;-88
2023/10/02 16:03:35;;;;;;;18.83;7.60;;;21.10;86.90;;;;;;10561506;28;20475;-88
2023/10/02 16:08:37;;;;;;;14.13;6.57;;;20.90;90.90;;;;;;10561476;28;20270;-88
2023/10/02 16:13:40;;;;;;;12.93;6.50;;;20.70;91.50;;;;;;10569975;28;20209;-88
2023/10/02 16:18:46;;;;;;;13.48;6.38;;;20.60;92.60;;;;;;10537114;28;20665;-87
2023/10/02 16:23:49;;;;;;;14.00;4.78;;;20.40;92.90;;;;;;10544866;28;20262;-88
2023/10/02 16:28:51;;;;;;;19.08;6.35;;;20.40;92.40;;;;;;10578909;28;20364;-86
2023/10/02 16:33:55;;;;;;;15.77;7.38;;;20.20;93.30;;;;;;10579093;28;20193;-87
2023/10/02 16:38:57;;;;;;;19.02;8.88;;;19.90;95.20;;;;;;10559021;28;20758;-87
2023/10/02 16:44:10;;;;;;;17.80;8.15;;;19.60;95.50;;;;;;10561296;28;20232;-85
2023/10/02 16:49:14;;;;;;;31.17;11.20;;;19.50;95.70;;;;;;10529987;28;20257;-87
2023/10/02 16:54:16;;;;;;;15.45;9.90;;;19.50;95.70;;;;;;10550134;28;20225;-86
2023/10/02 16:59:19;;;;;;;23.83;11.55;;;19.20;96.60;;;;;;10575654;28;21019;-86
2023/10/02 17:04:25;;;;;;;22.77;12.10;;;18.90;98.00;;;;;;10563594;28;20233;-85
2023/10/02 17:09:29;;;;;;;29.15;12.07;;;18.70;98.90;;;;;;10535822;28;20318;-84
2023/10/02 17:14:32;;;;;;;35.85;13.90;;;18.60;99.30;;;;;;10545884;28;20612;-84
2023/10/02 17:19:34;;;;;;;28.48;13.25;;;18.30;99.90;;;;;;10577313;28;20236;-85
2023/10/02 17:24:37;;;;;;;22.90;10.68;;;18.20;99.90;;;;;;10551475;28;20236;-85
2023/10/02 17:29:40;;;;;;;22.45;8.38;;;18.10;99.90;;;;;;10537560;28;20252;-84
2023/10/02 17:34:43;;;;;;;14.38;6.25;;;18.00;99.90;;;;;;10518822;28;20271;-84
2023/10/02 17:39:46;;;;;;;23.55;8.05;;;18.00;99.90;;;;;;10549935;28;20640;-83
2023/10/02 17:44:49;;;;;;;28.52;9.77;;;17.90;99.90;;;;;;10571727;28;20290;-82
2023/10/02 17:49:52;;;;;;;31.45;8.18;;;17.80;99.90;;;;;;10575072;28;20256;-83
2023/10/02 17:54:54;;;;;;;21.83;7.50;;;17.60;99.90;;;;;;10545044;28;20355;-83
2023/10/02 18:00:00;;;;;;;34.42;8.13;;;17.50;99.90;;;;;;10554295;28;20212;-87
2023/10/02 18:05:16;;;;;;;25.48;8.70;;;17.30;99.90;;;;;;10560503;28;20228;-87
2023/10/02 18:10:18;;;;;;;22.55;8.52;;;17.30;99.90;;;;;;10519880;28;20838;-85
2023/10/02 18:15:21;;;;;;;21.52;8.23;;;17.10;99.90;;;;;;10509654;28;20233;-85
2023/10/02 18:20:24;;;;;;;21.70;8.05;;;17.10;99.90;;;;;;10536235;28;20655;-85
2023/10/02 18:25:27;;;;;;;22.48;7.13;;;17.00;99.90;;;;;;10559741;28;20232;-84
2023/10/02 18:30:31;;;;;;;9.00;5.35;;;16.90;99.90;;;;;;10567807;28;20646;-83
2023/10/02 18:35:36;;;;;;;19.77;7.85;;;17.00;99.90;;;;;;10525081;28;20261;-86
2023/10/02 18:40:43;;;;;;;15.27;5.97;;;16.90;99.90;;;;;;10472580;28;20234;-84
2023/10/02 18:45:46;;;;;;;16.85;6.90;;;17.00;99.90;;;;;;10505945;28;20206;-84
2023/10/02 18:50:48;;;;;;;18.10;7.47;;;17.20;99.90;;;;;;10518321;28;20278;-85
2023/10/02 18:55:57;;;;;;;14.32;6.75;;;17.20;99.90;;;;;;10509147;28;20615;-85
2023/10/02 19:01:00;;;;;;;22.30;7.93;;;17.40;99.90;;;;;;10480198;28;20316;-85
2023/10/02 19:06:03;;;;;;;21.13;8.50;;;17.30;99.90;;;;;;10497117;28;20689;-85
2023/10/02 19:11:17;;;;;;;14.68;6.07;;;17.40;99.90;;;;;;10510149;28;20249;-85
2023/10/02 19:16:20;;;;;;;10.45;4.50;;;17.30;99.90;;;;;;10508762;28;20280;-85
2023/10/02 19:21:23;;;;;;;15.77;8.43;;;17.60;99.90;;;;;;10519485;28;20255;-85
2023/10/02 19:26:32;;;;;;;12.85;7.10;;;17.60;99.90;;;;;;10491936;28;20269;-85
2023/10/02 19:31:35;;;;;;;14.52;6.88;;;17.70;99.90;;;;;;10510018;28;20245;-84
2023/10/02 19:36:38;;;;;;;26.67;7.18;;;17.60;99.90;;;;;;10518746;28;20264;-85
2023/10/02 19:41:42;;;;;;;10.80;5.53;;;17.50;99.90;;;;;;10559059;28;20233;-85
2023/10/02 19:46:47;;;;;;;9.50;5.82;;;17.60;99.90;;;;;;10556546;28;20232;-85
2023/10/02 19:51:50;;;;;;;19.35;7.90;;;17.50;99.90;;;;;;10543397;28;20248;-85
2023/10/02 19:56:53;;;;;;;12.32;6.57;;;17.40;99.90;;;;;;10566837;28;20229;-85
2023/10/02 20:01:56;;;;;;;15.63;6.47;;;17.30;99.90;;;;;;10569760;28;21075;-85
2023/10/02 20:06:59;;;;;;;10.27;5.50;;;17.20;99.90;;;;;;10560358;28;20256;-84
2023/10/02 20:12:02;;;;;;;18.80;8.13;;;17.20;99.90;;;;;;10564607;28;20248;-84
2023/10/02 20:17:05;;;;;;;12.48;5.10;;;17.20;99.90;;;;;;10557889;28;20939;-84
2023/10/02 20:22:08;;;;;;;12.48;6.57;;;17.10;99.90;;;;;;10576975;28;20221;-84
2023/10/02 20:27:11;;;;;;;20.35;7.90;;;16.90;99.90;;;;;;10543314;28;20279;-84
2023/10/02 20:32:16;;;;;;;11.80;7.13;;;16.70;99.90;;;;;;10547053;28;20862;-85
2023/10/02 20:37:19;;;;;;;12.20;6.75;;;16.50;99.90;;;;;;10544986;28;20300;-85
2023/10/02 20:42:21;;;;;;;22.38;7.50;;;16.50;99.90;;;;;;10555129;28;20221;-85
2023/10/02 20:47:24;;;;;;;14.57;6.75;;;16.40;99.90;;;;;;10545556;28;20228;-85
2023/10/02 20:52:27;;;;;;;14.40;6.65;;;16.30;99.90;;;;;;10535189;28;20631;-84
2023/10/02 20:57:29;;;;;;;11.30;6.95;;;16.30;99.90;;;;;;10557586;28;20236;-84
2023/10/02 21:02:32;;;;;;;13.38;6.30;;;16.30;99.90;;;;;;10557915;28;20236;-84
2023/10/02 21:07:34;;;;;;;14.48;7.40;;;16.50;99.90;;;;;;10532764;28;20306;-84
2023/10/02 21:12:37;;;;;;;10.10;5.97;;;16.40;99.90;;;;;;10537391;28;20240;-85
2023/10/02 21:17:41;;;;;;;17.25;7.63;;;16.40;99.90;;;;;;10556092;28;20685;-85
2023/10/02 21:22:45;;;;;;;7.60;5.47;;;16.40;99.90;;;;;;10573884;28;20592;-86
2023/10/02 21:27:48;;;;;;;12.00;6.57;;;16.40;99.90;;;;;;10550505;28;20228;-84
2023/10/02 21:32:50;;;;;;;16.30;8.18;;;16.40;99.90;;;;;;10573042;28;20289;-86
2023/10/02 21:37:53;;;;;;;14.20;6.72;;;16.30;99.90;;;;;;10551630;28;20221;-85
2023/10/02 21:42:57;;;;;;;7.97;4.30;;;16.30;99.90;;;;;;10553408;28;21126;-85
2023/10/02 21:48:00;;;;;;;15.70;7.85;;;16.40;99.90;;;;;;10574571;28;20229;-85
2023/10/02 21:53:04;;;;;;;16.13;7.85;;;16.60;99.90;;;;;;10549255;28;20623;-85
2023/10/02 21:58:07;;;;;;;13.90;7.47;;;16.80;99.90;;;;;;10553334;28;20289;-85
2023/10/02 22:03:09;;;;;;;10.43;6.53;;;16.70;99.90;;;;;;10551971;28;20294;-85
2023/10/02 22:08:13;;;;;;;10.30;6.63;;;16.80;99.90;;;;;;10573478;28;20636;-85
2023/10/02 22:13:16;;;;;;;16.63;8.02;;;16.90;99.90;;;;;;10520469;28;20272;-85
2023/10/02 22:18:18;;;;;;;10.43;5.97;;;17.00;99.90;;;;;;10553289;28;20297;-85
2023/10/02 22:23:21;;;;;;;11.07;6.68;;;16.90;99.90;;;;;;10555855;28;20233;-85
2023/10/02 22:28:24;;;;;;;14.27;7.57;;;16.90;99.90;;;;;;10569727;28;20248;-85
2023/10/02 22:33:27;;;;;;;10.68;5.55;;;16.70;99.90;;;;;;10570317;28;20228;-85
2023/10/02 22:38:30;;;;;;;16.58;7.03;;;16.70;99.90;;;;;;10546645;28;20309;-84
2023/10/02 22:43:33;;;;;;;12.73;6.45;;;16.50;99.90;;;;;;10558131;28;20297;-85
2023/10/02 22:48:35;;;;;;;11.15;6.63;;;16.30;99.90;;;;;;10572598;28;20241;-85
2023/10/02 22:53:38;;;;;;;10.65;7.13;;;16.20;99.90;;;;;;10571938;28;20287;-85
2023/10/02 22:58:42;;;;;;;10.77;6.88;;;16.20;99.90;;;;;;10570555;28;20236;-85
2023/10/02 23:03:45;;;;;;;13.02;7.05;;;16.10;99.90;;;;;;10532306;28;20633;-85
2023/10/02 23:08:48;;;;;;;12.15;7.47;;;16.10;99.90;;;;;;10556499;28;20787;-85
2023/10/02 23:13:51;;;;;;;9.35;5.85;;;16.10;99.90;;;;;;10559246;28;20233;-85
2023/10/02 23:18:53;;;;;;;11.65;7.30;;;16.20;99.90;;;;;;10569865;28;20619;-85
2023/10/02 23:23:59;;;;;;;12.15;7.40;;;16.00;99.90;;;;;;10566539;28;20232;-85
2023/10/02 23:29:01;;;;;;;13.07;8.30;;;16.00;99.90;;;;;;10556406;28;20256;-85
2023/10/02 23:34:04;;;;;;;11.18;7.13;;;16.00;99.90;;;;;;10544609;28;20356;-84
2023/10/02 23:39:09;;;;;;;10.10;6.32;;;15.90;99.90;;;;;;10578362;28;20289;-85
2023/10/02 23:44:12;;;;;;;14.13;6.70;;;15.90;99.90;;;;;;10564191;28;20233;-85
2023/10/02 23:49:15;;;;;;;14.50;7.47;;;15.90;99.90;;;;;;10569924;28;20233;-85
2023/10/02 23:54:18;;;;;;;14.35;8.10;;;15.70;99.90;;;;;;10542911;28;20655;-84
2023/10/02 23:59:21;;;;;;;11.13;7.65;;;15.70;99.90;;;;;;10559757;28;20244;-84
